sensor_id;sensor_type;location;lat;lon;timestamp;pressure;altitude;pressure_sealevel;temperature;humidity
7760;BME280;3924;48.830;9.262;2023-01-01T00:00:38;98868.56;;;12.76;74.82
7760;BME280;3924;48.830;9.262;2023-01-01T00:03:05;98867.19;;;12.79;74.06
7760;BME280;3924;48.830;9.262;2023-01-01T00:05:31;98867.50;;;12.77;73.95
7760;BME280;3924;48.830;9.262;2023-01-01T00:07:58;98864.78;;;12.77;74.83
7760;BME280;3924;48.830;9.262;2023-01-01T00:10:30;98871.00;;;12.78;74.44
7760;BME280;3924;48.830;9.262;2023-01-01T00:12:57;98881.50;;;12.84;74.65
7760;BME280;3924;48.830;9.262;2023-01-01T00:15:25;98874.88;;;12.91;74.08
7760;BME280;3924;48.830;9.262;2023-01-01T00:17:52;98878.09;;;12.93;74.22
7760;BME280;3924;48.830;9.262;2023-01-01T00:20:19;98887.88;;;12.94;74.15
7760;BME280;3924;48.830;9.262;2023-01-01T00:22:45;98881.31;;;12.95;74.82
7760;BME280;3924;48.830;9.262;2023-01-01T00:25:21;98878.97;;;12.88;74.36
7760;BME280;3924;48.830;9.262;2023-01-01T00:27:48;98882.00;;;12.86;74.48
7760;BME280;3924;48.830;9.262;2023-01-01T00:30:14;98879.06;;;12.83;74.32
7760;BME280;3924;48.830;9.262;2023-01-01T00:32:41;98873.72;;;12.78;74.35
7760;BME280;3924;48.830;9.262;2023-01-01T00:35:20;98877.03;;;12.75;74.52
7760;BME280;3924;48.830;9.262;2023-01-01T00:37:46;98867.06;;;12.70;74.58
7760;BME280;3924;48.830;9.262;2023-01-01T00:40:13;98873.97;;;12.63;74.61
7760;BME280;3924;48.830;9.262;2023-01-01T00:42:39;98861.28;;;12.58;74.65
7760;BME280;3924;48.830;9.262;2023-01-01T00:45:07;98868.34;;;12.59;74.68
7760;BME280;3924;48.830;9.262;2023-01-01T00:47:33;98862.09;;;12.58;74.55
7760;BME280;3924;48.830;9.262;2023-01-01T00:50:00;98865.13;;;12.57;74.63
7760;BME280;3924;48.830;9.262;2023-01-01T00:52:26;98868.66;;;12.57;74.22
7760;BME280;3924;48.830;9.262;2023-01-01T00:54:53;98874.59;;;12.59;74.40
7760;BME280;3924;48.830;9.262;2023-01-01T00:57:19;98871.56;;;12.61;74.85
7760;BME280;3924;48.830;9.262;2023-01-01T00:59:46;98887.00;;;12.66;74.88
7760;BME280;3924;48.830;9.262;2023-01-01T01:02:12;98881.84;;;12.64;74.93
7760;BME280;3924;48.830;9.262;2023-01-01T01:04:39;98882.59;;;12.70;74.19
7760;BME280;3924;48.830;9.262;2023-01-01T01:07:05;98886.13;;;12.70;74.48
7760;BME280;3924;48.830;9.262;2023-01-01T01:09:32;98891.56;;;12.70;74.10
7760;BME280;3924;48.830;9.262;2023-01-01T01:11:59;98885.81;;;12.72;73.66
7760;BME280;3924;48.830;9.262;2023-01-01T01:14:44;98879.03;;;12.69;73.97
7760;BME280;3924;48.830;9.262;2023-01-01T01:17:10;98872.91;;;12.64;73.86
7760;BME280;3924;48.830;9.262;2023-01-01T01:19:37;98891.13;;;12.63;73.96
7760;BME280;3924;48.830;9.262;2023-01-01T01:22:03;98896.34;;;12.59;74.67
7760;BME280;3924;48.830;9.262;2023-01-01T01:24:30;98886.66;;;12.53;74.21
7760;BME280;3924;48.830;9.262;2023-01-01T01:26:56;98892.69;;;12.50;74.65
7760;BME280;3924;48.830;9.262;2023-01-01T01:29:24;98893.88;;;12.44;74.47
7760;BME280;3924;48.830;9.262;2023-01-01T01:31:50;98884.38;;;12.42;74.39
7760;BME280;3924;48.830;9.262;2023-01-01T01:34:16;98886.09;;;12.38;74.75
7760;BME280;3924;48.830;9.262;2023-01-01T01:36:49;98875.78;;;12.35;74.42
7760;BME280;3924;48.830;9.262;2023-01-01T01:39:18;98873.69;;;12.31;75.08
7760;BME280;3924;48.830;9.262;2023-01-01T01:41:45;98882.34;;;12.33;74.54
7760;BME280;3924;48.830;9.262;2023-01-01T01:47:31;98879.13;;;12.31;74.91
7760;BME280;3924;48.830;9.262;2023-01-01T01:55:37;98887.78;;;12.33;74.96
7760;BME280;3924;48.830;9.262;2023-01-01T01:58:06;98881.53;;;12.33;74.07
7760;BME280;3924;48.830;9.262;2023-01-01T02:00:35;98891.84;;;12.36;75.11
7760;BME280;3924;48.830;9.262;2023-01-01T02:03:08;98889.38;;;12.35;74.88
7760;BME280;3924;48.830;9.262;2023-01-01T02:05:37;98881.34;;;12.29;75.03
7760;BME280;3924;48.830;9.262;2023-01-01T02:08:22;98893.81;;;12.30;75.09
7760;BME280;3924;48.830;9.262;2023-01-01T02:10:50;98901.38;;;12.33;74.71
7760;BME280;3924;48.830;9.262;2023-01-01T02:13:23;98894.31;;;12.32;74.00
7760;BME280;3924;48.830;9.262;2023-01-01T02:15:54;98905.25;;;12.27;74.66
7760;BME280;3924;48.830;9.262;2023-01-01T02:18:28;98901.66;;;12.13;74.90
7760;BME280;3924;48.830;9.262;2023-01-01T02:21:04;98905.94;;;12.00;75.11
7760;BME280;3924;48.830;9.262;2023-01-01T02:23:45;98912.81;;;11.93;75.78
7760;BME280;3924;48.830;9.262;2023-01-01T02:26:37;98908.56;;;11.87;75.16
7760;BME280;3924;48.830;9.262;2023-01-01T02:34:27;98899.97;;;11.56;75.80
7760;BME280;3924;48.830;9.262;2023-01-01T02:36:56;98899.81;;;11.47;76.35
7760;BME280;3924;48.830;9.262;2023-01-01T02:39:31;98895.41;;;11.51;75.97
7760;BME280;3924;48.830;9.262;2023-01-01T02:42:02;98895.47;;;11.46;76.20
7760;BME280;3924;48.830;9.262;2023-01-01T02:44:34;98895.00;;;11.39;76.26
7760;BME280;3924;48.830;9.262;2023-01-01T02:47:16;98899.97;;;11.32;76.64
7760;BME280;3924;48.830;9.262;2023-01-01T02:49:55;98904.38;;;11.28;77.28
7760;BME280;3924;48.830;9.262;2023-01-01T02:55:20;98909.22;;;11.31;76.42
7760;BME280;3924;48.830;9.262;2023-01-01T02:57:55;98900.22;;;11.35;76.28
7760;BME280;3924;48.830;9.262;2023-01-01T03:00:46;98911.03;;;11.40;76.09
7760;BME280;3924;48.830;9.262;2023-01-01T03:03:30;98917.19;;;11.46;76.48
7760;BME280;3924;48.830;9.262;2023-01-01T03:08:57;98912.25;;;11.53;75.90
7760;BME280;3924;48.830;9.262;2023-01-01T03:11:34;98901.22;;;11.63;76.08
7760;BME280;3924;48.830;9.262;2023-01-01T03:14:33;98895.69;;;11.73;75.33
7760;BME280;3924;48.830;9.262;2023-01-01T03:17:19;98913.81;;;11.78;75.91
7760;BME280;3924;48.830;9.262;2023-01-01T03:19:47;98919.16;;;11.88;75.64
7760;BME280;3924;48.830;9.262;2023-01-01T03:22:16;98924.81;;;11.92;75.82
7760;BME280;3924;48.830;9.262;2023-01-01T03:24:57;98924.00;;;11.91;75.64
7760;BME280;3924;48.830;9.262;2023-01-01T03:27:29;98921.94;;;11.83;75.75
7760;BME280;3924;48.830;9.262;2023-01-01T03:29:59;98920.19;;;11.68;76.02
7760;BME280;3924;48.830;9.262;2023-01-01T03:32:31;98930.66;;;11.56;75.92
7760;BME280;3924;48.830;9.262;2023-01-01T03:35:21;98932.31;;;11.52;76.28
7760;BME280;3924;48.830;9.262;2023-01-01T03:37:50;98944.28;;;11.51;76.06
7760;BME280;3924;48.830;9.262;2023-01-01T03:40:19;98951.41;;;11.47;76.58
7760;BME280;3924;48.830;9.262;2023-01-01T03:43:02;98949.88;;;11.60;76.04
7760;BME280;3924;48.830;9.262;2023-01-01T03:45:40;98950.06;;;11.68;76.15
7760;BME280;3924;48.830;9.262;2023-01-01T03:48:08;98957.63;;;11.71;75.84
7760;BME280;3924;48.830;9.262;2023-01-01T03:50:42;98955.97;;;11.75;75.54
7760;BME280;3924;48.830;9.262;2023-01-01T03:55:49;98956.69;;;11.57;76.52
7760;BME280;3924;48.830;9.262;2023-01-01T03:58:34;98953.88;;;11.43;76.57
7760;BME280;3924;48.830;9.262;2023-01-01T04:01:22;98943.97;;;11.29;76.22
7760;BME280;3924;48.830;9.262;2023-01-01T04:03:53;98949.50;;;11.18;76.84
7760;BME280;3924;48.830;9.262;2023-01-01T04:06:20;98946.59;;;11.10;76.61
7760;BME280;3924;48.830;9.262;2023-01-01T04:08:49;98946.19;;;10.98;77.58
7760;BME280;3924;48.830;9.262;2023-01-01T04:11:23;98946.56;;;10.86;77.33
7760;BME280;3924;48.830;9.262;2023-01-01T04:14:11;98948.53;;;10.75;77.75
7760;BME280;3924;48.830;9.262;2023-01-01T04:16:37;98950.53;;;10.64;77.55
7760;BME280;3924;48.830;9.262;2023-01-01T04:19:08;98949.25;;;10.57;77.40
7760;BME280;3924;48.830;9.262;2023-01-01T04:21:41;98943.88;;;10.47;78.55
7760;BME280;3924;48.830;9.262;2023-01-01T04:24:13;98944.19;;;10.40;77.75
7760;BME280;3924;48.830;9.262;2023-01-01T04:26:41;98947.75;;;10.35;78.62
7760;BME280;3924;48.830;9.262;2023-01-01T04:29:17;98937.78;;;10.26;78.63
7760;BME280;3924;48.830;9.262;2023-01-01T04:31:45;98939.47;;;10.17;78.50
7760;BME280;3924;48.830;9.262;2023-01-01T04:34:15;98935.69;;;10.07;78.39
7760;BME280;3924;48.830;9.262;2023-01-01T04:36:42;98927.63;;;10.02;78.66
7760;BME280;3924;48.830;9.262;2023-01-01T04:39:09;98929.25;;;9.98;78.69
7760;BME280;3924;48.830;9.262;2023-01-01T04:41:36;98928.75;;;9.96;78.83
7760;BME280;3924;48.830;9.262;2023-01-01T04:44:07;98933.88;;;9.93;78.94
7760;BME280;3924;48.830;9.262;2023-01-01T04:46:34;98924.97;;;9.92;78.89
7760;BME280;3924;48.830;9.262;2023-01-01T04:49:00;98926.34;;;9.90;78.96
7760;BME280;3924;48.830;9.262;2023-01-01T04:51:27;98922.84;;;9.84;78.88
7760;BME280;3924;48.830;9.262;2023-01-01T04:53:53;98929.88;;;9.80;79.20
7760;BME280;3924;48.830;9.262;2023-01-01T04:56:20;98922.84;;;9.79;79.26
7760;BME280;3924;48.830;9.262;2023-01-01T04:58:47;98924.50;;;9.75;79.41
7760;BME280;3924;48.830;9.262;2023-01-01T05:03:42;98937.38;;;9.98;79.16
7760;BME280;3924;48.830;9.262;2023-01-01T05:06:10;98944.38;;;10.09;79.02
7760;BME280;3924;48.830;9.262;2023-01-01T05:08:39;98944.31;;;10.20;78.77
7760;BME280;3924;48.830;9.262;2023-01-01T05:11:17;98947.72;;;10.40;78.60
7760;BME280;3924;48.830;9.262;2023-01-01T05:13:46;98947.66;;;10.51;78.38
7760;BME280;3924;48.830;9.262;2023-01-01T05:16:17;98950.88;;;10.58;78.35
7760;BME280;3924;48.830;9.262;2023-01-01T05:18:44;98952.38;;;10.69;78.11
7760;BME280;3924;48.830;9.262;2023-01-01T05:21:14;98951.50;;;10.79;78.12
7760;BME280;3924;48.830;9.262;2023-01-01T05:23:41;98958.78;;;10.83;77.82
7760;BME280;3924;48.830;9.262;2023-01-01T05:26:15;98958.41;;;10.95;77.78
7760;BME280;3924;48.830;9.262;2023-01-01T05:28:42;98958.66;;;10.99;77.29
7760;BME280;3924;48.830;9.262;2023-01-01T05:31:17;98958.84;;;11.07;77.91
7760;BME280;3924;48.830;9.262;2023-01-01T05:33:45;98958.22;;;11.15;77.25
7760;BME280;3924;48.830;9.262;2023-01-01T05:36:23;98954.13;;;11.18;77.78
7760;BME280;3924;48.830;9.262;2023-01-01T05:38:51;98959.81;;;11.21;76.80
7760;BME280;3924;48.830;9.262;2023-01-01T05:41:19;98954.84;;;11.29;77.15
7760;BME280;3924;48.830;9.262;2023-01-01T05:43:46;98961.25;;;11.38;77.28
7760;BME280;3924;48.830;9.262;2023-01-01T05:46:15;98969.25;;;11.53;76.75
7760;BME280;3924;48.830;9.262;2023-01-01T05:48:43;98965.91;;;11.61;76.75
7760;BME280;3924;48.830;9.262;2023-01-01T05:51:18;98966.66;;;11.67;76.51
7760;BME280;3924;48.830;9.262;2023-01-01T05:53:46;98970.09;;;11.72;76.34
7760;BME280;3924;48.830;9.262;2023-01-01T05:56:14;98964.09;;;11.75;76.41
7760;BME280;3924;48.830;9.262;2023-01-01T05:58:45;98960.50;;;11.80;75.97
7760;BME280;3924;48.830;9.262;2023-01-01T06:01:13;98970.81;;;11.83;76.59
7760;BME280;3924;48.830;9.262;2023-01-01T06:03:42;98960.00;;;11.78;75.94
7760;BME280;3924;48.830;9.262;2023-01-01T06:06:15;98973.34;;;11.74;75.93
7760;BME280;3924;48.830;9.262;2023-01-01T06:08:51;98979.00;;;11.78;76.90
7760;BME280;3924;48.830;9.262;2023-01-01T06:11:19;98966.78;;;11.81;76.65
7760;BME280;3924;48.830;9.262;2023-01-01T06:13:46;98983.91;;;11.81;76.35
7760;BME280;3924;48.830;9.262;2023-01-01T06:16:13;98983.31;;;11.84;75.88
7760;BME280;3924;48.830;9.262;2023-01-01T06:18:40;98989.53;;;11.85;75.98
7760;BME280;3924;48.830;9.262;2023-01-01T06:21:13;98994.47;;;11.83;76.83
7760;BME280;3924;48.830;9.262;2023-01-01T06:23:40;98991.41;;;11.89;76.21
7760;BME280;3924;48.830;9.262;2023-01-01T06:28:40;98990.25;;;11.95;76.17
7760;BME280;3924;48.830;9.262;2023-01-01T06:31:09;98996.50;;;11.96;75.61
7760;BME280;3924;48.830;9.262;2023-01-01T06:33:37;98992.66;;;11.97;76.03
7760;BME280;3924;48.830;9.262;2023-01-01T06:36:06;98993.22;;;11.94;76.42
7760;BME280;3924;48.830;9.262;2023-01-01T06:38:36;98999.25;;;11.91;75.81
7760;BME280;3924;48.830;9.262;2023-01-01T06:41:11;98991.41;;;11.89;76.07
7760;BME280;3924;48.830;9.262;2023-01-01T06:43:38;99002.56;;;11.88;75.41
7760;BME280;3924;48.830;9.262;2023-01-01T06:46:13;99006.34;;;11.87;76.14
7760;BME280;3924;48.830;9.262;2023-01-01T06:48:40;99007.72;;;11.89;76.63
7760;BME280;3924;48.830;9.262;2023-01-01T06:51:13;99004.69;;;11.91;75.40
7760;BME280;3924;48.830;9.262;2023-01-01T06:53:40;99003.38;;;11.88;76.49
7760;BME280;3924;48.830;9.262;2023-01-01T06:56:08;99009.06;;;11.87;75.73
7760;BME280;3924;48.830;9.262;2023-01-01T06:58:36;99006.69;;;11.80;76.12
7760;BME280;3924;48.830;9.262;2023-01-01T07:01:19;99002.13;;;11.75;75.85
7760;BME280;3924;48.830;9.262;2023-01-01T07:03:54;98997.00;;;11.74;76.25
7760;BME280;3924;48.830;9.262;2023-01-01T07:06:22;99002.69;;;11.72;76.45
7760;BME280;3924;48.830;9.262;2023-01-01T07:08:50;99009.78;;;11.73;75.85
7760;BME280;3924;48.830;9.262;2023-01-01T07:11:17;99005.94;;;11.74;75.25
7760;BME280;3924;48.830;9.262;2023-01-01T07:13:44;99013.22;;;11.79;75.65
7760;BME280;3924;48.830;9.262;2023-01-01T07:16:12;99014.28;;;11.83;76.34
7760;BME280;3924;48.830;9.262;2023-01-01T07:18:43;99008.28;;;11.86;75.52
7760;BME280;3924;48.830;9.262;2023-01-01T07:21:30;99016.16;;;11.88;75.02
7760;BME280;3924;48.830;9.262;2023-01-01T07:24:03;99011.75;;;11.92;74.84
7760;BME280;3924;48.830;9.262;2023-01-01T07:26:32;99017.41;;;11.95;75.52
7760;BME280;3924;48.830;9.262;2023-01-01T07:28:59;99018.16;;;12.01;75.81
7760;BME280;3924;48.830;9.262;2023-01-01T07:31:38;99008.84;;;12.07;75.33
7760;BME280;3924;48.830;9.262;2023-01-01T07:34:08;99012.66;;;12.06;74.98
7760;BME280;3924;48.830;9.262;2023-01-01T07:36:35;99007.22;;;12.06;75.27
7760;BME280;3924;48.830;9.262;2023-01-01T07:39:02;99012.91;;;12.10;74.83
7760;BME280;3924;48.830;9.262;2023-01-01T07:41:29;99015.00;;;12.13;74.62
7760;BME280;3924;48.830;9.262;2023-01-01T07:43:59;99014.72;;;12.14;74.56
7760;BME280;3924;48.830;9.262;2023-01-01T07:46:26;99028.84;;;12.16;74.41
7760;BME280;3924;48.830;9.262;2023-01-01T07:48:56;99025.53;;;12.19;74.25
7760;BME280;3924;48.830;9.262;2023-01-01T07:51:23;99036.91;;;12.21;74.08
7760;BME280;3924;48.830;9.262;2023-01-01T07:53:51;99042.34;;;12.21;74.63
7760;BME280;3924;48.830;9.262;2023-01-01T07:56:18;99036.34;;;12.24;74.52
7760;BME280;3924;48.830;9.262;2023-01-01T07:58:45;99045.81;;;12.27;74.60
7760;BME280;3924;48.830;9.262;2023-01-01T08:01:13;99051.50;;;12.30;74.53
7760;BME280;3924;48.830;9.262;2023-01-01T08:03:40;99049.28;;;12.32;73.88
7760;BME280;3924;48.830;9.262;2023-01-01T08:06:12;99050.34;;;12.37;74.31
7760;BME280;3924;48.830;9.262;2023-01-01T08:08:39;99062.22;;;12.41;73.37
7760;BME280;3924;48.830;9.262;2023-01-01T08:11:07;99068.72;;;12.45;73.31
7760;BME280;3924;48.830;9.262;2023-01-01T08:13:34;99070.94;;;12.43;73.49
7760;BME280;3924;48.830;9.262;2023-01-01T08:16:01;99083.41;;;12.44;74.23
7760;BME280;3924;48.830;9.262;2023-01-01T08:18:29;99085.09;;;12.40;73.44
7760;BME280;3924;48.830;9.262;2023-01-01T08:20:56;99073.47;;;12.34;73.88
7760;BME280;3924;48.830;9.262;2023-01-01T08:23:26;99070.53;;;12.30;73.49
7760;BME280;3924;48.830;9.262;2023-01-01T08:25:57;99082.25;;;12.26;74.04
7760;BME280;3924;48.830;9.262;2023-01-01T08:28:24;99089.41;;;12.22;72.98
7760;BME280;3924;48.830;9.262;2023-01-01T08:30:51;99082.41;;;12.16;73.43
7760;BME280;3924;48.830;9.262;2023-01-01T08:33:18;99084.38;;;12.10;74.07
7760;BME280;3924;48.830;9.262;2023-01-01T08:35:45;99086.56;;;12.08;73.96
7760;BME280;3924;48.830;9.262;2023-01-01T08:38:19;99080.28;;;12.08;73.97
7760;BME280;3924;48.830;9.262;2023-01-01T08:40:46;99089.56;;;12.07;74.16
7760;BME280;3924;48.830;9.262;2023-01-01T08:43:14;99094.19;;;12.06;74.26
7760;BME280;3924;48.830;9.262;2023-01-01T08:45:40;99094.47;;;12.04;74.03
7760;BME280;3924;48.830;9.262;2023-01-01T08:48:07;99089.91;;;12.00;74.16
7760;BME280;3924;48.830;9.262;2023-01-01T08:50:34;99107.31;;;11.99;73.91
7760;BME280;3924;48.830;9.262;2023-01-01T08:53:01;99107.59;;;11.97;73.79
7760;BME280;3924;48.830;9.262;2023-01-01T08:55:27;99101.06;;;11.98;74.15
7760;BME280;3924;48.830;9.262;2023-01-01T08:57:54;99101.34;;;11.97;73.40
7760;BME280;3924;48.830;9.262;2023-01-01T09:00:20;99107.31;;;11.99;73.30
7760;BME280;3924;48.830;9.262;2023-01-01T09:02:47;99111.38;;;12.01;73.45
7760;BME280;3924;48.830;9.262;2023-01-01T09:05:14;99115.13;;;12.05;74.17
7760;BME280;3924;48.830;9.262;2023-01-01T09:07:40;99099.06;;;12.09;73.70
7760;BME280;3924;48.830;9.262;2023-01-01T09:10:07;99110.16;;;12.13;73.46
7760;BME280;3924;48.830;9.262;2023-01-01T09:12:33;99114.22;;;12.15;73.26
7760;BME280;3924;48.830;9.262;2023-01-01T09:15:00;99105.50;;;12.13;74.18
7760;BME280;3924;48.830;9.262;2023-01-01T09:17:26;99106.56;;;12.17;73.31
7760;BME280;3924;48.830;9.262;2023-01-01T09:19:53;99111.41;;;12.20;73.81
7760;BME280;3924;48.830;9.262;2023-01-01T09:22:19;99113.56;;;12.23;72.62
7760;BME280;3924;48.830;9.262;2023-01-01T09:24:46;99113.53;;;12.28;73.51
7760;BME280;3924;48.830;9.262;2023-01-01T09:27:12;99110.50;;;12.30;73.79
7760;BME280;3924;48.830;9.262;2023-01-01T09:29:38;99119.69;;;12.34;73.86
7760;BME280;3924;48.830;9.262;2023-01-01T09:32:05;99114.78;;;12.36;72.71
7760;BME280;3924;48.830;9.262;2023-01-01T09:34:31;99116.34;;;12.42;72.96
7760;BME280;3924;48.830;9.262;2023-01-01T09:36:58;99110.00;;;12.47;72.67
7760;BME280;3924;48.830;9.262;2023-01-01T09:39:24;99111.56;;;12.53;72.61
7760;BME280;3924;48.830;9.262;2023-01-01T09:44:44;99120.19;;;12.60;72.99
7760;BME280;3924;48.830;9.262;2023-01-01T09:47:31;99120.13;;;12.65;72.76
7760;BME280;3924;48.830;9.262;2023-01-01T09:50:28;99128.75;;;12.72;71.91
7760;BME280;3924;48.830;9.262;2023-01-01T09:53:04;99125.97;;;12.77;72.37
7760;BME280;3924;48.830;9.262;2023-01-01T09:55:58;99123.38;;;12.86;71.76
7760;BME280;3924;48.830;9.262;2023-01-01T09:58:35;99131.38;;;12.96;71.94
7760;BME280;3924;48.830;9.262;2023-01-01T10:01:08;99129.94;;;13.04;71.48
7760;BME280;3924;48.830;9.262;2023-01-01T10:03:48;99130.59;;;13.14;71.25
7760;BME280;3924;48.830;9.262;2023-01-01T10:06:31;99128.03;;;13.23;70.78
7760;BME280;3924;48.830;9.262;2023-01-01T10:11:54;99130.06;;;13.50;71.15
7760;BME280;3924;48.830;9.262;2023-01-01T10:14:31;99120.94;;;13.60;70.20
7760;BME280;3924;48.830;9.262;2023-01-01T10:17:02;99120.72;;;13.70;69.94
7760;BME280;3924;48.830;9.262;2023-01-01T10:19:37;99121.38;;;13.81;70.36
7760;BME280;3924;48.830;9.262;2023-01-01T10:22:11;99114.34;;;13.93;70.02
7760;BME280;3924;48.830;9.262;2023-01-01T10:25:04;99110.53;;;14.08;69.53
7760;BME280;3924;48.830;9.262;2023-01-01T10:27:37;99113.53;;;14.20;68.83
7760;BME280;3924;48.830;9.262;2023-01-01T10:30:23;99111.91;;;14.33;68.65
7760;BME280;3924;48.830;9.262;2023-01-01T10:32:52;99114.94;;;14.45;68.41
7760;BME280;3924;48.830;9.262;2023-01-01T10:35:34;99110.94;;;14.57;68.27
7760;BME280;3924;48.830;9.262;2023-01-01T10:38:04;99108.59;;;14.64;68.23
7760;BME280;3924;48.830;9.262;2023-01-01T10:40:31;99102.91;;;14.74;68.07
7760;BME280;3924;48.830;9.262;2023-01-01T10:43:00;99092.09;;;14.83;67.90
7760;BME280;3924;48.830;9.262;2023-01-01T10:45:37;99100.16;;;14.88;67.32
7760;BME280;3924;48.830;9.262;2023-01-01T10:48:19;99098.94;;;14.94;67.64
7760;BME280;3924;48.830;9.262;2023-01-01T10:50:49;99096.25;;;15.02;67.35
7760;BME280;3924;48.830;9.262;2023-01-01T10:53:37;99097.16;;;15.12;66.86
7760;BME280;3924;48.830;9.262;2023-01-01T10:56:13;99097.44;;;15.24;66.64
7760;BME280;3924;48.830;9.262;2023-01-01T11:04:08;99101.75;;;15.47;66.04
7760;BME280;3924;48.830;9.262;2023-01-01T11:06:44;99094.41;;;15.56;65.88
7760;BME280;3924;48.830;9.262;2023-01-01T11:09:27;99089.34;;;15.64;64.94
7760;BME280;3924;48.830;9.262;2023-01-01T11:11:57;99086.00;;;15.67;65.06
7760;BME280;3924;48.830;9.262;2023-01-01T11:14:48;99079.41;;;15.68;65.42
7760;BME280;3924;48.830;9.262;2023-01-01T11:17:23;99072.81;;;15.69;65.49
7760;BME280;3924;48.830;9.262;2023-01-01T11:19:50;99076.56;;;15.73;65.09
7760;BME280;3924;48.830;9.262;2023-01-01T11:22:49;99078.88;;;15.88;64.58
7760;BME280;3924;48.830;9.262;2023-01-01T11:25:20;99071.06;;;16.04;64.55
7760;BME280;3924;48.830;9.262;2023-01-01T11:27:48;99067.09;;;16.19;64.25
7760;BME280;3924;48.830;9.262;2023-01-01T11:30:25;99068.75;;;16.37;64.10
7760;BME280;3924;48.830;9.262;2023-01-01T11:32:57;99072.97;;;16.43;63.62
7760;BME280;3924;48.830;9.262;2023-01-01T11:35:27;99059.94;;;16.49;63.11
7760;BME280;3924;48.830;9.262;2023-01-01T11:37:54;99054.13;;;16.50;62.40
7760;BME280;3924;48.830;9.262;2023-01-01T11:40:26;99044.31;;;16.49;62.57
7760;BME280;3924;48.830;9.262;2023-01-01T11:43:03;99038.03;;;16.49;62.62
7760;BME280;3924;48.830;9.262;2023-01-01T11:45:37;99038.38;;;16.47;62.72
7760;BME280;3924;48.830;9.262;2023-01-01T11:48:14;99033.03;;;16.42;62.69
7760;BME280;3924;48.830;9.262;2023-01-01T11:50:53;99030.78;;;16.44;63.06
7760;BME280;3924;48.830;9.262;2023-01-01T12:01:31;99023.72;;;16.60;61.54
7760;BME280;3924;48.830;9.262;2023-01-01T12:04:12;99020.34;;;16.63;61.69
7760;BME280;3924;48.830;9.262;2023-01-01T12:07:06;99021.94;;;16.64;62.03
7760;BME280;3924;48.830;9.262;2023-01-01T12:09:46;99011.97;;;16.68;61.88
7760;BME280;3924;48.830;9.262;2023-01-01T12:12:27;99006.88;;;16.76;61.68
7760;BME280;3924;48.830;9.262;2023-01-01T12:15:19;99009.75;;;16.79;61.62
7760;BME280;3924;48.830;9.262;2023-01-01T12:18:01;98996.38;;;16.86;61.54
7760;BME280;3924;48.830;9.262;2023-01-01T12:20:34;98998.94;;;16.91;60.79
7760;BME280;3924;48.830;9.262;2023-01-01T12:23:03;98995.25;;;16.96;60.75
7760;BME280;3924;48.830;9.262;2023-01-01T12:25:40;99003.63;;;17.00;60.45
7760;BME280;3924;48.830;9.262;2023-01-01T12:37:04;98987.34;;;17.03;61.00
7760;BME280;3924;48.830;9.262;2023-01-01T12:39:57;98983.00;;;17.02;59.80
7760;BME280;3924;48.830;9.262;2023-01-01T12:42:47;98973.81;;;16.98;60.89
7760;BME280;3924;48.830;9.262;2023-01-01T12:50:53;98961.88;;;16.94;59.66
7760;BME280;3924;48.830;9.262;2023-01-01T12:56:17;98964.19;;;16.75;60.92
7760;BME280;3924;48.830;9.262;2023-01-01T12:58:59;98966.88;;;16.66;60.93
7760;BME280;3924;48.830;9.262;2023-01-01T13:01:30;98961.25;;;16.62;60.95
7760;BME280;3924;48.830;9.262;2023-01-01T13:04:00;98966.22;;;16.60;60.98
7760;BME280;3924;48.830;9.262;2023-01-01T13:06:42;98963.34;;;16.57;60.99
7760;BME280;3924;48.830;9.262;2023-01-01T13:09:22;98971.22;;;16.58;60.28
7760;BME280;3924;48.830;9.262;2023-01-01T13:12:13;98975.41;;;16.56;61.02
7760;BME280;3924;48.830;9.262;2023-01-01T13:14:44;98974.09;;;16.53;60.59
7760;BME280;3924;48.830;9.262;2023-01-01T13:17:29;98962.22;;;16.49;60.87
7760;BME280;3924;48.830;9.262;2023-01-01T13:20:14;98967.22;;;16.47;60.95
7760;BME280;3924;48.830;9.262;2023-01-01T13:22:42;98955.94;;;16.49;60.72
7760;BME280;3924;48.830;9.262;2023-01-01T13:33:24;98952.69;;;16.47;59.74
7760;BME280;3924;48.830;9.262;2023-01-01T13:49:24;98940.13;;;16.46;59.41
7760;BME280;3924;48.830;9.262;2023-01-01T14:03:47;98928.41;;;16.28;59.58
7760;BME280;3924;48.830;9.262;2023-01-01T14:06:28;98927.56;;;16.19;60.03
7760;BME280;3924;48.830;9.262;2023-01-01T14:09:05;98921.75;;;16.11;59.78
7760;BME280;3924;48.830;9.262;2023-01-01T14:11:36;98926.09;;;16.12;60.08
7760;BME280;3924;48.830;9.262;2023-01-01T14:14:21;98921.47;;;16.13;59.35
7760;BME280;3924;48.830;9.262;2023-01-01T14:16:51;98933.84;;;16.10;60.07
7760;BME280;3924;48.830;9.262;2023-01-01T14:19:18;98935.09;;;16.04;59.39
7760;BME280;3924;48.830;9.262;2023-01-01T14:21:46;98946.84;;;15.96;60.36
7760;BME280;3924;48.830;9.262;2023-01-01T14:24:15;98942.16;;;15.88;59.75
7760;BME280;3924;48.830;9.262;2023-01-01T14:26:44;98936.69;;;15.79;60.32
7760;BME280;3924;48.830;9.262;2023-01-01T14:29:26;98944.81;;;15.71;60.42
7760;BME280;3924;48.830;9.262;2023-01-01T14:31:58;98946.22;;;15.59;60.50
7760;BME280;3924;48.830;9.262;2023-01-01T14:34:31;98939.91;;;15.50;60.80
7760;BME280;3924;48.830;9.262;2023-01-01T14:37:00;98939.06;;;15.41;61.10
7760;BME280;3924;48.830;9.262;2023-01-01T14:39:32;98942.09;;;15.31;61.29
7760;BME280;3924;48.830;9.262;2023-01-01T14:42:04;98948.94;;;15.20;61.45
7760;BME280;3924;48.830;9.262;2023-01-01T14:44:44;98947.56;;;15.09;62.02
7760;BME280;3924;48.830;9.262;2023-01-01T14:47:38;98951.19;;;14.95;62.11
7760;BME280;3924;48.830;9.262;2023-01-01T14:50:17;98943.25;;;14.85;62.26
7760;BME280;3924;48.830;9.262;2023-01-01T14:52:50;98951.06;;;14.78;62.50
7760;BME280;3924;48.830;9.262;2023-01-01T14:55:18;98947.97;;;14.71;62.58
7760;BME280;3924;48.830;9.262;2023-01-01T14:57:54;98949.53;;;14.63;63.22
7760;BME280;3924;48.830;9.262;2023-01-01T15:00:24;98941.56;;;14.53;63.52
7760;BME280;3924;48.830;9.262;2023-01-01T15:02:51;98936.00;;;14.44;64.24
7760;BME280;3924;48.830;9.262;2023-01-01T15:07:58;98946.66;;;14.32;64.13
7760;BME280;3924;48.830;9.262;2023-01-01T15:10:27;98941.31;;;14.27;64.31
7760;BME280;3924;48.830;9.262;2023-01-01T15:12:55;98946.91;;;14.22;64.17
7760;BME280;3924;48.830;9.262;2023-01-01T15:15:43;98943.25;;;14.13;64.62
7760;BME280;3924;48.830;9.262;2023-01-01T15:18:43;98951.69;;;14.03;65.29
7760;BME280;3924;48.830;9.262;2023-01-01T15:23:59;98960.28;;;13.82;65.33
7760;BME280;3924;48.830;9.262;2023-01-01T15:26:29;98954.75;;;13.74;65.84
7760;BME280;3924;48.830;9.262;2023-01-01T15:28:57;98945.94;;;13.63;65.61
7760;BME280;3924;48.830;9.262;2023-01-01T15:31:45;98946.75;;;13.50;66.07